createdAt,value
2019-01-19T00:00:11.151Z,5.80
2019-01-19T00:03:21.003Z,6.47
2019-01-19T00:06:16.395Z,7.17
2019-01-19T00:08:53.283Z,6.00
2019-01-19T00:11:37.407Z,7.07
2019-01-19T00:14:44.871Z,7.70
2019-01-19T00:18:26.627Z,7.50
2019-01-19T00:21:11.399Z,8.00
2019-01-19T00:24:07.523Z,9.00
2019-01-19T00:26:48.171Z,8.33
2019-01-19T00:29:31.699Z,9.47
2019-01-19T00:32:12.028Z,10.33
2019-01-19T00:34:58.771Z,9.27
2019-01-19T00:37:56.166Z,9.40
2019-01-19T00:40:34.767Z,9.50
2019-01-19T00:43:15.327Z,11.23
2019-01-19T00:46:35.395Z,9.33
2019-01-19T00:49:13.047Z,9.90
2019-01-19T00:52:12.543Z,9.20
2019-01-19T00:54:51.791Z,9.57
2019-01-19T00:57:35.172Z,8.48
2019-01-19T01:00:12.999Z,8.07
2019-01-19T01:03:05.207Z,8.13
2019-01-19T01:08:17.129Z,7.73
2019-01-19T01:10:58.506Z,7.57
2019-01-19T01:13:43.009Z,7.93
2019-01-19T01:16:17.890Z,8.83
2019-01-19T01:19:14.289Z,9.90
2019-01-19T01:22:21.547Z,8.47
2019-01-19T01:25:06.779Z,9.00
2019-01-19T01:27:52.494Z,9.40
2019-01-19T01:30:36.842Z,8.20
2019-01-19T01:33:17.771Z,8.57
2019-01-19T01:38:01.155Z,9.53
2019-01-19T01:41:43.987Z,8.93
2019-01-19T01:44:26.562Z,9.03
2019-01-19T01:49:08.787Z,9.37
2019-01-19T01:51:46.022Z,10.97
2019-01-19T01:55:21.938Z,10.87
2019-01-19T01:58:06.770Z,11.27
2019-01-19T02:00:48.349Z,10.97
2019-01-19T02:03:32.706Z,11.60
2019-01-19T02:08:14.878Z,10.67
2019-01-19T02:12:58.658Z,10.40
2019-01-19T02:15:41.898Z,9.97
2019-01-19T02:18:32.830Z,10.07
2019-01-19T02:21:15.274Z,9.80
2019-01-19T02:23:49.335Z,10.60
2019-01-19T02:28:33.098Z,10.47
2019-01-19T02:33:21.089Z,10.97
2019-01-19T02:36:08.121Z,12.90
2019-01-19T02:39:18.327Z,12.57
2019-01-19T02:42:02.399Z,11.90
2019-01-19T02:44:55.827Z,10.93
2019-01-19T02:47:36.598Z,9.10
2019-01-19T02:50:24.091Z,9.00
2019-01-19T02:53:11.359Z,7.53
2019-01-19T02:56:21.522Z,9.80
2019-01-19T02:58:59.214Z,8.90
2019-01-19T03:03:47.634Z,9.23
2019-01-19T03:06:30.613Z,10.37
2019-01-19T03:09:10.700Z,10.53
2019-01-19T03:12:01.931Z,10.73
2019-01-19T03:16:59.826Z,9.50
2019-01-19T03:19:46.065Z,10.03
2019-01-19T03:22:24.465Z,9.77
2019-01-19T03:25:10.482Z,10.10
2019-01-19T03:27:56.829Z,9.70
2019-01-19T03:30:58.776Z,8.93
2019-01-19T03:33:49.246Z,9.27
2019-01-19T03:38:43.053Z,9.63
2019-01-19T03:42:33.451Z,9.07
2019-01-19T03:45:16.665Z,8.93
2019-01-19T03:48:06.109Z,9.57
2019-01-19T03:51:57.994Z,10.00
2019-01-19T03:55:07.742Z,9.93
2019-01-19T03:57:48.177Z,10.33
2019-01-19T04:00:45.023Z,10.70
2019-01-19T04:04:28.969Z,10.57
2019-01-19T04:07:16.197Z,10.93
2019-01-19T04:10:09.556Z,9.77
2019-01-19T04:12:47.717Z,9.27
2019-01-19T04:17:35.524Z,9.63
2019-01-19T04:22:17.821Z,8.67
2019-01-19T04:25:03.134Z,9.93
2019-01-19T04:27:31.665Z,9.53
2019-01-19T04:30:00.206Z,9.50
2019-01-19T04:32:29.301Z,10.30
2019-01-19T04:34:57.820Z,10.37
2019-01-19T04:37:26.305Z,11.00
2019-01-19T04:39:54.803Z,10.80
2019-01-19T04:42:23.649Z,11.07
2019-01-19T04:44:52.157Z,11.20
2019-01-19T04:47:20.681Z,10.23
2019-01-19T04:49:49.397Z,10.53
2019-01-19T04:52:17.882Z,8.97
2019-01-19T04:54:48.403Z,9.63
2019-01-19T04:57:15.346Z,10.40
2019-01-19T04:59:43.829Z,9.80
2019-01-19T05:02:12.593Z,9.87
2019-01-19T05:04:41.618Z,9.07
2019-01-19T05:07:10.153Z,9.00
2019-01-19T05:09:38.664Z,9.43
2019-01-19T05:12:07.194Z,8.93
2019-01-19T05:14:35.773Z,10.47
2019-01-19T05:17:05.425Z,8.93
2019-01-19T05:19:34.304Z,9.13
2019-01-19T05:22:02.818Z,9.70
2019-01-19T05:24:32.066Z,9.50
2019-01-19T05:27:01.269Z,10.17
2019-01-19T05:29:30.084Z,10.43
2019-01-19T05:31:58.652Z,9.90
2019-01-19T05:34:27.150Z,10.40
2019-01-19T05:36:55.730Z,9.73
2019-01-19T05:39:24.368Z,9.37
2019-01-19T05:41:52.869Z,9.90
2019-01-19T05:44:21.580Z,10.23
2019-01-19T05:46:50.224Z,9.90
2019-01-19T05:49:18.757Z,9.43
2019-01-19T05:51:47.291Z,9.53
2019-01-19T05:54:15.875Z,10.30
2019-01-19T05:56:44.648Z,10.93
2019-01-19T05:59:13.494Z,10.43
2019-01-19T06:01:42.345Z,11.83
2019-01-19T06:04:11.257Z,10.30
2019-01-19T06:06:46.590Z,11.27
2019-01-19T06:09:09.196Z,9.73
2019-01-19T06:11:37.980Z,10.30
2019-01-19T06:14:06.455Z,10.20
2019-01-19T06:16:35.603Z,9.43
2019-01-19T06:19:05.021Z,10.10
2019-01-19T06:21:37.340Z,10.37
2019-01-19T06:24:05.941Z,9.07
2019-01-19T06:26:34.580Z,9.23
2019-01-19T06:29:03.268Z,10.40
2019-01-19T06:31:32.192Z,9.97
2019-01-19T06:34:00.708Z,11.70
2019-01-19T06:36:29.220Z,10.47
2019-01-19T06:38:58.157Z,12.27
2019-01-19T06:41:27.010Z,11.33
2019-01-19T06:43:55.812Z,10.70
2019-01-19T06:46:24.684Z,10.60
2019-01-19T06:48:53.576Z,13.40
2019-01-19T06:51:22.416Z,12.33
2019-01-19T06:53:51.403Z,11.70
2019-01-19T06:56:19.892Z,13.80
2019-01-19T06:58:48.766Z,12.87
2019-01-19T07:01:17.920Z,11.80
2019-01-19T07:03:46.475Z,11.90
2019-01-19T07:06:15.092Z,11.53
2019-01-19T07:08:43.804Z,12.90
2019-01-19T07:11:12.275Z,11.17
2019-01-19T07:13:40.824Z,11.60
2019-01-19T07:16:09.352Z,12.43
2019-01-19T07:18:37.996Z,12.37
2019-01-19T07:21:06.901Z,12.37
2019-01-19T07:23:35.376Z,11.77
2019-01-19T07:26:03.920Z,11.73
2019-01-19T07:28:32.473Z,13.20
2019-01-19T07:31:00.971Z,12.13
2019-01-19T07:33:30.115Z,12.63
2019-01-19T07:35:58.772Z,13.57
2019-01-19T07:38:27.631Z,11.90
2019-01-19T07:40:56.835Z,11.97
2019-01-19T07:43:25.499Z,11.83
2019-01-19T07:45:54.175Z,13.17
2019-01-19T07:48:23.176Z,12.47
2019-01-19T07:50:51.736Z,10.93
2019-01-19T07:53:20.283Z,11.73
2019-01-19T07:55:48.811Z,14.33
2019-01-19T07:58:17.319Z,12.10
2019-01-19T08:00:45.883Z,12.90
2019-01-19T08:03:14.424Z,13.23
2019-01-19T08:05:43.275Z,16.63
2019-01-19T08:08:11.903Z,17.60
2019-01-19T08:10:40.520Z,11.30
2019-01-19T08:13:09.143Z,13.80
2019-01-19T08:15:37.675Z,15.43
2019-01-19T08:18:06.229Z,13.80
2019-01-19T08:20:34.755Z,16.03
2019-01-19T08:23:03.319Z,17.43
2019-01-19T08:25:32.107Z,17.27
2019-01-19T08:28:01.414Z,17.10
2019-01-19T08:30:30.152Z,16.87
2019-01-19T08:32:59.226Z,15.60
2019-01-19T08:35:28.355Z,12.83
2019-01-19T08:37:57.014Z,12.27
2019-01-19T08:40:29.783Z,13.97
2019-01-19T08:43:04.057Z,14.13
2019-01-19T08:45:32.730Z,14.97
2019-01-19T08:48:01.698Z,13.57
2019-01-19T08:50:30.307Z,13.37
2019-01-19T08:52:58.907Z,13.27
2019-01-19T08:55:27.706Z,13.07
2019-01-19T08:57:56.647Z,13.33
2019-01-19T09:00:25.279Z,13.33
2019-01-19T09:02:53.861Z,13.87
2019-01-19T09:05:22.379Z,13.67
2019-01-19T09:07:50.870Z,16.83
2019-01-19T09:10:19.477Z,10.23
2019-01-19T09:12:48.234Z,11.73
2019-01-19T09:15:16.987Z,14.17
2019-01-19T09:17:45.607Z,14.53
2019-01-19T09:20:15.030Z,15.03
2019-01-19T09:22:43.591Z,14.93
2019-01-19T09:25:13.557Z,16.50
2019-01-19T09:27:42.382Z,15.10
2019-01-19T09:30:15.294Z,15.53
2019-01-19T09:32:44.130Z,15.33
2019-01-19T09:35:12.706Z,16.27
2019-01-19T09:37:41.266Z,17.80
2019-01-19T09:40:11.278Z,18.23
2019-01-19T09:42:39.850Z,15.87
2019-01-19T09:45:08.762Z,14.90
2019-01-19T09:47:37.342Z,14.70
2019-01-19T09:50:06.938Z,16.07
2019-01-19T09:52:35.568Z,14.53
2019-01-19T09:55:05.455Z,18.80
2019-01-19T09:57:34.285Z,13.03
2019-01-19T10:00:37.521Z,11.60
2019-01-19T10:03:05.201Z,17.10
2019-01-19T10:05:38.538Z,21.50
2019-01-19T10:08:07.526Z,14.00
2019-01-19T10:10:36.341Z,15.57
2019-01-19T10:13:05.097Z,16.87
2019-01-19T10:15:34.257Z,15.97
2019-01-19T10:18:03.074Z,14.00
2019-01-19T10:20:31.773Z,19.40
2019-01-19T10:23:00.987Z,17.37
2019-01-19T10:25:29.589Z,18.33
2019-01-19T10:27:58.363Z,16.53
2019-01-19T10:30:27.438Z,14.73
2019-01-19T10:32:56.054Z,17.63
2019-01-19T10:35:24.834Z,15.40
2019-01-19T10:37:56.688Z,14.13
2019-01-19T10:40:22.373Z,14.35
2019-01-19T10:42:51.035Z,15.30
2019-01-19T10:45:21.730Z,17.60
2019-01-19T10:47:50.406Z,15.67
2019-01-19T10:50:19.146Z,14.67
2019-01-19T10:52:47.846Z,15.73
2019-01-19T10:55:18.366Z,16.50
2019-01-19T10:57:47.134Z,15.13
2019-01-19T11:00:19.718Z,12.17
2019-01-19T11:02:48.520Z,15.37
2019-01-19T11:05:17.470Z,17.67
2019-01-19T11:07:47.887Z,15.50
2019-01-19T11:10:18.982Z,15.40
2019-01-19T11:12:47.667Z,15.97
2019-01-19T11:15:16.766Z,15.28
2019-01-19T11:17:45.497Z,15.23
2019-01-19T11:20:16.765Z,16.33
2019-01-19T11:22:45.466Z,18.10
2019-01-19T11:25:14.130Z,20.17
2019-01-19T11:27:42.910Z,15.53
2019-01-19T11:30:15.054Z,16.00
2019-01-19T11:32:44.482Z,15.80
2019-01-19T11:35:12.616Z,15.37
2019-01-19T11:37:41.386Z,17.53
2019-01-19T11:40:13.095Z,18.67
2019-01-19T11:42:41.921Z,17.47
2019-01-19T11:45:13.649Z,21.27
2019-01-19T11:47:42.389Z,15.83
2019-01-19T11:50:11.205Z,16.43
2019-01-19T11:52:39.973Z,18.80
2019-01-19T11:55:09.389Z,19.17
2019-01-19T11:57:38.125Z,16.83
2019-01-19T12:00:12.657Z,16.07
2019-01-19T12:02:41.661Z,13.90
2019-01-19T12:05:10.481Z,13.80
2019-01-19T12:07:39.308Z,14.07
2019-01-19T12:10:10.621Z,9.60
2019-01-19T12:12:39.289Z,14.10
2019-01-19T12:15:09.258Z,14.10
2019-01-19T12:17:37.059Z,12.77
2019-01-19T12:20:09.576Z,14.33
2019-01-19T12:22:39.312Z,17.27
2019-01-19T12:25:15.964Z,14.97
2019-01-19T12:27:44.601Z,15.73
2019-01-19T12:30:16.660Z,15.98
2019-01-19T12:32:45.249Z,14.50
2019-01-19T12:35:13.880Z,13.07
2019-01-19T12:37:42.444Z,17.47
2019-01-19T12:40:12.564Z,22.00
2019-01-19T12:42:41.884Z,19.23
2019-01-19T12:45:13.711Z,18.00
2019-01-19T12:47:42.544Z,11.57
2019-01-19T12:50:16.256Z,15.87
2019-01-19T12:52:44.847Z,13.57
2019-01-19T12:55:13.692Z,14.90
2019-01-19T12:57:42.428Z,14.60
2019-01-19T13:00:16.388Z,15.80
2019-01-19T13:02:45.248Z,14.33
2019-01-19T13:05:24.324Z,14.80
2019-01-19T13:07:53.048Z,16.57
2019-01-19T13:10:25.680Z,16.43
2019-01-19T13:13:05.748Z,15.77
2019-01-19T13:18:51.920Z,19.03
2019-01-19T13:22:33.819Z,18.13
2019-01-19T13:25:13.348Z,17.87
2019-01-19T13:27:59.800Z,21.87
2019-01-19T13:30:40.420Z,18.33
2019-01-19T13:33:22.707Z,19.47
2019-01-19T13:36:13.460Z,15.87
2019-01-19T13:40:12.211Z,14.67
2019-01-19T13:43:12.856Z,15.13
2019-01-19T13:45:55.716Z,15.03
2019-01-19T13:48:41.282Z,13.80
2019-01-19T13:51:23.227Z,14.62
2019-01-19T13:54:29.856Z,16.82
2019-01-19T13:58:09.769Z,18.17
2019-01-19T14:01:01.324Z,15.23
2019-01-19T14:03:42.527Z,16.07
2019-01-19T14:06:51.819Z,15.63
2019-01-19T14:11:39.472Z,15.38
2019-01-19T14:14:32.811Z,16.87
2019-01-19T14:19:15.135Z,18.13
2019-01-19T14:22:25.003Z,15.13
2019-01-19T14:27:10.364Z,18.30
2019-01-19T14:29:50.599Z,17.20
2019-01-19T14:32:33.275Z,18.40
2019-01-19T14:35:11.538Z,17.80
2019-01-19T14:38:24.151Z,16.57
2019-01-19T14:42:01.124Z,16.20
2019-01-19T14:47:01.912Z,17.62
2019-01-19T14:49:49.351Z,19.73
2019-01-19T14:52:27.346Z,21.93
2019-01-19T14:55:13.262Z,23.40
2019-01-19T14:57:56.259Z,21.60
2019-01-19T15:00:38.679Z,22.53
2019-01-19T15:03:19.162Z,19.47
2019-01-19T15:05:57.687Z,18.77
2019-01-19T15:08:44.078Z,18.57
2019-01-19T15:11:24.755Z,19.30
2019-01-19T15:14:03.548Z,22.60
2019-01-19T15:16:46.195Z,20.00
2019-01-19T15:19:26.860Z,21.00
2019-01-19T15:24:06.551Z,23.17
2019-01-19T15:26:49.650Z,20.00
2019-01-19T15:29:29.742Z,23.23
2019-01-19T15:32:09.555Z,20.43
2019-01-19T15:35:03.690Z,22.00
2019-01-19T15:39:49.626Z,17.90
2019-01-19T15:42:46.422Z,18.30
2019-01-19T15:45:31.036Z,24.60
2019-01-19T15:48:21.003Z,22.57
2019-01-19T15:51:11.255Z,24.57
2019-01-19T15:53:48.423Z,21.60
2019-01-19T15:56:35.759Z,23.93
2019-01-19T15:59:17.155Z,19.90
2019-01-19T16:03:00.179Z,21.43
2019-01-19T16:05:42.843Z,19.80
2019-01-19T16:08:29.695Z,19.80
2019-01-19T16:11:43.709Z,21.67
2019-01-19T16:15:44.351Z,21.60
2019-01-19T16:18:50.534Z,21.93
2019-01-19T16:21:32.650Z,21.23
2019-01-19T16:24:15.910Z,22.60
2019-01-19T16:27:11.675Z,23.30
2019-01-19T16:30:03.739Z,23.20
2019-01-19T16:33:54.432Z,21.40
2019-01-19T16:36:41.445Z,21.97
2019-01-19T16:39:25.722Z,23.20
2019-01-19T16:42:39.123Z,24.63
2019-01-19T16:45:51.708Z,22.97
2019-01-19T16:48:51.102Z,23.87
2019-01-19T16:52:10.846Z,25.27
2019-01-19T16:54:54.378Z,22.60
2019-01-19T16:57:38.694Z,23.20
2019-01-19T17:00:24.092Z,22.90
2019-01-19T17:03:12.266Z,21.63
2019-01-19T17:05:52.202Z,22.00
2019-01-19T17:09:33.181Z,22.03
2019-01-19T17:12:10.578Z,22.67
2019-01-19T17:15:22.153Z,22.13
2019-01-19T17:18:08.008Z,21.33
2019-01-19T17:22:54.094Z,21.27
2019-01-19T17:26:43.614Z,19.23
2019-01-19T17:29:28.051Z,19.67
2019-01-19T17:32:06.386Z,21.67
2019-01-19T17:34:44.234Z,19.73
2019-01-19T17:37:19.943Z,18.70
2019-01-19T17:42:03.923Z,17.23
2019-01-19T17:45:20.823Z,17.43
2019-01-19T17:48:01.267Z,16.23
2019-01-19T17:53:12.401Z,19.30
2019-01-19T17:55:51.007Z,18.50
2019-01-19T17:58:32.722Z,17.83
2019-01-19T18:01:12.724Z,16.80
2019-01-19T18:03:57.386Z,15.73
2019-01-19T18:07:26.454Z,16.30
2019-01-19T18:10:11.053Z,14.87
2019-01-19T18:13:21.777Z,14.50
2019-01-19T18:17:16.940Z,14.97
2019-01-19T18:19:55.877Z,14.30
2019-01-19T18:24:40.372Z,14.60
2019-01-19T18:28:24.392Z,16.30
2019-01-19T18:31:11.476Z,13.80
2019-01-19T18:33:49.594Z,15.50
2019-01-19T18:38:31.790Z,15.60
2019-01-19T18:41:11.069Z,18.00
2019-01-19T18:44:04.434Z,16.63
2019-01-19T18:46:45.062Z,17.97
2019-01-19T18:49:22.896Z,17.03
2019-01-19T18:52:06.362Z,16.03
2019-01-19T18:56:57.365Z,16.03
2019-01-19T18:59:40.833Z,16.73
2019-01-19T19:02:20.702Z,19.33
2019-01-19T19:07:03.841Z,18.63
2019-01-19T19:10:07.278Z,18.03
2019-01-19T19:13:21.407Z,18.50
2019-01-19T19:16:04.577Z,17.50
2019-01-19T19:18:47.507Z,15.87
2019-01-19T19:21:29.097Z,15.10
2019-01-19T19:24:38.608Z,15.43
2019-01-19T19:29:19.753Z,16.50
2019-01-19T19:32:58.701Z,14.97
2019-01-19T19:35:38.477Z,14.03
2019-01-19T19:38:17.085Z,12.97
2019-01-19T19:41:29.715Z,14.43
2019-01-19T19:46:12.084Z,12.50
2019-01-19T19:48:56.479Z,15.73
2019-01-19T19:51:35.064Z,14.97
2019-01-19T19:54:03.900Z,14.60
2019-01-19T19:56:31.389Z,12.97
2019-01-19T19:59:00.352Z,14.73
2019-01-19T20:01:29.083Z,13.95
2019-01-19T20:03:57.792Z,15.90
2019-01-19T20:06:26.640Z,13.77
2019-01-19T20:08:55.524Z,16.03
2019-01-19T20:11:24.512Z,17.50
2019-01-19T20:13:53.140Z,17.60
2019-01-19T20:16:21.659Z,18.23
2019-01-19T20:18:50.424Z,17.13
2019-01-19T20:21:19.063Z,13.48
2019-01-19T20:23:48.627Z,16.07
2019-01-19T20:26:17.122Z,12.83
2019-01-19T20:28:45.682Z,13.83
2019-01-19T20:31:14.259Z,15.43
2019-01-19T20:33:42.775Z,15.63
2019-01-19T20:36:11.722Z,14.47
2019-01-19T20:38:40.497Z,13.23
2019-01-19T20:41:09.513Z,13.40
2019-01-19T20:43:38.089Z,12.83
2019-01-19T20:46:07.141Z,14.33
2019-01-19T20:48:35.684Z,15.03
2019-01-19T20:51:04.921Z,11.97
2019-01-19T20:53:33.826Z,13.23
2019-01-19T20:56:02.599Z,11.50
2019-01-19T20:58:31.317Z,12.90
2019-01-19T21:01:00.040Z,13.13
2019-01-19T21:03:28.529Z,13.50
2019-01-19T21:05:57.081Z,13.33
2019-01-19T21:08:25.604Z,14.63
2019-01-19T21:10:54.697Z,13.57
2019-01-19T21:13:23.393Z,11.67
2019-01-19T21:15:52.117Z,15.40
2019-01-19T21:18:20.717Z,15.00
2019-01-19T21:20:49.333Z,14.00
2019-01-19T21:23:18.592Z,13.43
2019-01-19T21:25:47.441Z,14.23
2019-01-19T21:28:16.177Z,13.57
2019-01-19T21:30:44.692Z,14.50
2019-01-19T21:33:13.368Z,14.60
2019-01-19T21:35:41.965Z,11.60
2019-01-19T21:38:10.563Z,11.30
2019-01-19T21:40:39.404Z,12.63
2019-01-19T21:43:08.059Z,11.73
2019-01-19T21:45:36.763Z,12.10
2019-01-19T21:48:05.319Z,11.47
2019-01-19T21:50:33.863Z,11.77
2019-01-19T21:53:02.439Z,11.00
2019-01-19T21:55:31.086Z,10.97
2019-01-19T21:57:59.770Z,11.70
2019-01-19T22:00:28.547Z,10.60
2019-01-19T22:02:57.183Z,10.73
2019-01-19T22:05:27.486Z,11.83
2019-01-19T22:07:56.238Z,10.40
2019-01-19T22:10:25.063Z,11.23
2019-01-19T22:12:53.635Z,10.87
2019-01-19T22:15:27.174Z,11.27
2019-01-19T22:17:56.850Z,10.40
2019-01-19T22:20:25.806Z,9.93
2019-01-19T22:22:54.950Z,10.37
2019-01-19T22:25:23.896Z,10.73
2019-01-19T22:27:53.235Z,9.80
2019-01-19T22:30:23.779Z,9.88
2019-01-19T22:32:54.485Z,10.07
2019-01-19T22:35:24.592Z,11.20
2019-01-19T22:37:53.528Z,9.53
2019-01-19T22:40:22.629Z,9.63
2019-01-19T22:42:52.645Z,9.23
2019-01-19T22:45:21.823Z,12.03
2019-01-19T22:47:51.057Z,9.33
2019-01-19T22:50:22.825Z,10.27
2019-01-19T22:52:53.318Z,10.10
2019-01-19T22:55:22.381Z,10.20
2019-01-19T22:57:51.641Z,10.50
2019-01-19T23:00:28.433Z,10.65
2019-01-19T23:02:57.217Z,10.60
2019-01-19T23:05:25.906Z,8.73
2019-01-19T23:07:54.513Z,10.80
2019-01-19T23:10:23.809Z,9.57
2019-01-19T23:13:25.397Z,10.07
2019-01-19T23:15:57.413Z,9.80
2019-01-19T23:18:28.489Z,10.10
2019-01-19T23:20:57.881Z,9.13
2019-01-19T23:23:28.296Z,9.27
2019-01-19T23:25:56.913Z,9.00
2019-01-19T23:28:25.560Z,9.57
2019-01-19T23:30:54.225Z,9.37
2019-01-19T23:33:23.364Z,8.78
2019-01-19T23:35:52.121Z,8.93
2019-01-19T23:38:21.170Z,9.30
2019-01-19T23:40:49.784Z,10.40
2019-01-19T23:43:18.412Z,10.20
2019-01-19T23:45:47.197Z,9.73
2019-01-19T23:48:15.685Z,9.03
2019-01-19T23:50:44.256Z,9.00
2019-01-19T23:53:13.365Z,9.60
2019-01-19T23:55:42.032Z,9.60
2019-01-19T23:58:11.220Z,9.27
